sensor_id;sensor_type;location;lat;lon;timestamp;pressure;altitude;pressure_sealevel;temperature;humidity
72961;BME280;61141;46.204;19.774;2023-09-19T00:01:11;100082.31;;;22.15;58.81
72961;BME280;61141;46.204;19.774;2023-09-19T00:04:15;100082.00;;;22.13;58.60
72961;BME280;61141;46.204;19.774;2023-09-19T00:07:18;100082.91;;;22.10;58.64
72961;BME280;61141;46.204;19.774;2023-09-19T00:10:21;100088.16;;;22.08;58.61
72961;BME280;61141;46.204;19.774;2023-09-19T00:13:26;100089.72;;;22.09;58.75
72961;BME280;61141;46.204;19.774;2023-09-19T00:16:31;100092.16;;;22.07;58.69
72961;BME280;61141;46.204;19.774;2023-09-19T00:19:35;100088.47;;;22.10;58.72
72961;BME280;61141;46.204;19.774;2023-09-19T00:22:40;100086.59;;;22.07;58.80
72961;BME280;61141;46.204;19.774;2023-09-19T00:25:44;100085.69;;;22.10;58.65
72961;BME280;61141;46.204;19.774;2023-09-19T00:28:48;100076.03;;;22.02;58.79
72961;BME280;61141;46.204;19.774;2023-09-19T00:31:51;100082.56;;;22.08;58.82
72961;BME280;61141;46.204;19.774;2023-09-19T00:34:54;100077.91;;;22.05;58.67
72961;BME280;61141;46.204;19.774;2023-09-19T00:37:58;100078.22;;;22.07;58.96
72961;BME280;61141;46.204;19.774;2023-09-19T00:41:01;100077.13;;;22.04;58.50
72961;BME280;61141;46.204;19.774;2023-09-19T00:44:04;100074.69;;;22.06;59.00
72961;BME280;61141;46.204;19.774;2023-09-19T00:47:07;100082.25;;;22.06;58.65
72961;BME280;61141;46.204;19.774;2023-09-19T00:50:13;100086.75;;;22.03;58.72
72961;BME280;61141;46.204;19.774;2023-09-19T00:53:20;100079.12;;;22.04;58.60
72961;BME280;61141;46.204;19.774;2023-09-19T00:56:23;100078.81;;;22.02;58.85
72961;BME280;61141;46.204;19.774;2023-09-19T01:01:59;100066.94;;;22.63;57.21
72961;BME280;61141;46.204;19.774;2023-09-19T01:05:04;100066.94;;;22.63;57.21
72961;BME280;61141;46.204;19.774;2023-09-19T01:08:08;100058.66;;;21.98;58.97
72961;BME280;61141;46.204;19.774;2023-09-19T01:11:28;100062.97;;;21.99;58.95
72961;BME280;61141;46.204;19.774;2023-09-19T01:14:42;100058.97;;;22.00;59.29
72961;BME280;61141;46.204;19.774;2023-09-19T01:17:53;100054.28;;;21.97;59.23
72961;BME280;61141;46.204;19.774;2023-09-19T01:24:25;100049.63;;;21.94;59.44
72961;BME280;61141;46.204;19.774;2023-09-19T01:31:06;100053.63;;;21.93;59.61
72961;BME280;61141;46.204;19.774;2023-09-19T01:34:11;100058.56;;;21.89;59.69
72961;BME280;61141;46.204;19.774;2023-09-19T01:37:16;100059.34;;;21.89;59.63
72961;BME280;61141;46.204;19.774;2023-09-19T01:40:23;100059.19;;;21.93;59.59
72961;BME280;61141;46.204;19.774;2023-09-19T01:43:32;100074.53;;;21.88;60.01
72961;BME280;61141;46.204;19.774;2023-09-19T01:46:39;100069.81;;;21.85;59.98
72961;BME280;61141;46.204;19.774;2023-09-19T01:49:50;100081.44;;;21.84;60.44
72961;BME280;61141;46.204;19.774;2023-09-19T01:53:06;100079.88;;;21.83;60.47
72961;BME280;61141;46.204;19.774;2023-09-19T01:56:16;100070.97;;;21.75;60.55
72961;BME280;61141;46.204;19.774;2023-09-19T01:59:25;100077.97;;;21.80;60.60
72961;BME280;61141;46.204;19.774;2023-09-19T02:02:35;100084.81;;;21.79;60.46
72961;BME280;61141;46.204;19.774;2023-09-19T02:05:39;100086.81;;;21.78;60.41
72961;BME280;61141;46.204;19.774;2023-09-19T02:08:42;100086.81;;;21.78;60.75
72961;BME280;61141;46.204;19.774;2023-09-19T02:11:45;100082.78;;;21.79;60.60
72961;BME280;61141;46.204;19.774;2023-09-19T02:14:48;100085.25;;;21.77;60.94
72961;BME280;61141;46.204;19.774;2023-09-19T02:17:51;100072.13;;;21.65;61.43
72961;BME280;61141;46.204;19.774;2023-09-19T02:20:54;100076.66;;;21.72;62.18
72961;BME280;61141;46.204;19.774;2023-09-19T02:23:59;100069.22;;;21.68;63.14
72961;BME280;61141;46.204;19.774;2023-09-19T02:27:01;100062.00;;;21.58;62.47
72961;BME280;61141;46.204;19.774;2023-09-19T02:30:07;100069.16;;;21.59;62.51
72961;BME280;61141;46.204;19.774;2023-09-19T02:33:10;100069.25;;;21.56;62.06
72961;BME280;61141;46.204;19.774;2023-09-19T02:36:13;100073.25;;;21.55;62.04
72961;BME280;61141;46.204;19.774;2023-09-19T02:39:20;100084.09;;;21.53;62.12
72961;BME280;61141;46.204;19.774;2023-09-19T02:42:23;100082.09;;;21.53;62.02
72961;BME280;61141;46.204;19.774;2023-09-19T02:45:26;100079.31;;;21.53;62.33
72961;BME280;61141;46.204;19.774;2023-09-19T02:48:30;100081.63;;;21.55;62.03
72961;BME280;61141;46.204;19.774;2023-09-19T02:51:34;100085.78;;;21.50;62.13
72961;BME280;61141;46.204;19.774;2023-09-19T02:54:37;100076.31;;;21.48;62.15
72961;BME280;61141;46.204;19.774;2023-09-19T02:57:40;100060.69;;;21.50;62.26
72961;BME280;61141;46.204;19.774;2023-09-19T03:00:46;100050.75;;;21.49;61.77
72961;BME280;61141;46.204;19.774;2023-09-19T03:03:54;100044.41;;;21.49;61.32
72961;BME280;61141;46.204;19.774;2023-09-19T03:06:57;100055.13;;;21.50;61.29
72961;BME280;61141;46.204;19.774;2023-09-19T03:10:06;100048.28;;;21.51;61.22
72961;BME280;61141;46.204;19.774;2023-09-19T03:13:09;100054.13;;;21.44;61.27
72961;BME280;61141;46.204;19.774;2023-09-19T03:16:12;100048.44;;;21.48;61.03
72961;BME280;61141;46.204;19.774;2023-09-19T03:19:18;100055.22;;;21.47;60.96
72961;BME280;61141;46.204;19.774;2023-09-19T03:22:23;100050.87;;;21.46;60.91
72961;BME280;61141;46.204;19.774;2023-09-19T03:25:27;100048.09;;;21.46;60.89
72961;BME280;61141;46.204;19.774;2023-09-19T03:28:33;100051.34;;;21.44;60.96
72961;BME280;61141;46.204;19.774;2023-09-19T03:31:36;100044.44;;;21.36;63.48
72961;BME280;61141;46.204;19.774;2023-09-19T03:34:42;100036.78;;;21.28;65.75
72961;BME280;61141;46.204;19.774;2023-09-19T03:37:46;100025.88;;;21.08;65.62
72961;BME280;61141;46.204;19.774;2023-09-19T03:40:49;100009.41;;;21.01;66.16
72961;BME280;61141;46.204;19.774;2023-09-19T03:43:52;100025.47;;;21.10;65.68
72961;BME280;61141;46.204;19.774;2023-09-19T03:46:56;100023.44;;;21.10;65.10
72961;BME280;61141;46.204;19.774;2023-09-19T03:49:59;100021.44;;;20.98;65.40
72961;BME280;61141;46.204;19.774;2023-09-19T03:53:03;100026.31;;;21.06;64.46
72961;BME280;61141;46.204;19.774;2023-09-19T03:56:06;100025.53;;;21.06;64.94
72961;BME280;61141;46.204;19.774;2023-09-19T03:59:09;100024.34;;;21.07;64.72
72961;BME280;61141;46.204;19.774;2023-09-19T04:02:12;100023.97;;;21.05;64.78
72961;BME280;61141;46.204;19.774;2023-09-19T04:05:25;100022.66;;;20.97;64.33
72961;BME280;61141;46.204;19.774;2023-09-19T04:08:28;100049.81;;;21.05;64.47
72961;BME280;61141;46.204;19.774;2023-09-19T04:11:31;100041.56;;;21.02;65.28
72961;BME280;61141;46.204;19.774;2023-09-19T04:14:33;100047.81;;;21.06;65.93
72961;BME280;61141;46.204;19.774;2023-09-19T04:17:36;100056.59;;;21.04;65.79
72961;BME280;61141;46.204;19.774;2023-09-19T04:20:39;100047.94;;;21.02;65.97
72961;BME280;61141;46.204;19.774;2023-09-19T04:23:43;100048.81;;;20.99;66.57
72961;BME280;61141;46.204;19.774;2023-09-19T04:26:45;100052.06;;;20.98;66.45
72961;BME280;61141;46.204;19.774;2023-09-19T04:29:48;100049.06;;;20.92;67.41
72961;BME280;61141;46.204;19.774;2023-09-19T04:32:53;100052.16;;;20.94;67.52
72961;BME280;61141;46.204;19.774;2023-09-19T04:35:56;100057.09;;;20.90;67.92
72961;BME280;61141;46.204;19.774;2023-09-19T04:39:04;100045.03;;;20.93;68.41
72961;BME280;61141;46.204;19.774;2023-09-19T04:42:10;100047.94;;;20.90;69.18
72961;BME280;61141;46.204;19.774;2023-09-19T04:45:16;100055.19;;;20.87;69.97
72961;BME280;61141;46.204;19.774;2023-09-19T04:48:19;100054.72;;;20.89;70.17
72961;BME280;61141;46.204;19.774;2023-09-19T04:51:22;100055.62;;;20.86;70.66
72961;BME280;61141;46.204;19.774;2023-09-19T04:54:26;100053.72;;;20.83;71.30
72961;BME280;61141;46.204;19.774;2023-09-19T04:57:29;100048.81;;;20.74;72.35
72961;BME280;61141;46.204;19.774;2023-09-19T05:00:34;100046.28;;;20.67;72.39
72961;BME280;61141;46.204;19.774;2023-09-19T05:03:37;100052.31;;;20.66;72.00
72961;BME280;61141;46.204;19.774;2023-09-19T05:06:41;100050.63;;;20.68;71.88
72961;BME280;61141;46.204;19.774;2023-09-19T05:09:48;100056.31;;;20.65;71.36
72961;BME280;61141;46.204;19.774;2023-09-19T05:12:53;100057.09;;;20.65;71.25
72961;BME280;61141;46.204;19.774;2023-09-19T05:16:00;100068.22;;;20.65;70.89
72961;BME280;61141;46.204;19.774;2023-09-19T05:19:05;100066.75;;;20.61;70.96
72961;BME280;61141;46.204;19.774;2023-09-19T05:22:08;100035.91;;;20.42;70.70
72961;BME280;61141;46.204;19.774;2023-09-19T05:25:11;100073.88;;;20.62;70.51
72961;BME280;61141;46.204;19.774;2023-09-19T05:28:18;100064.19;;;20.54;70.04
72961;BME280;61141;46.204;19.774;2023-09-19T05:31:22;100065.88;;;20.64;69.27
72961;BME280;61141;46.204;19.774;2023-09-19T05:34:26;100081.13;;;20.72;68.93
72961;BME280;61141;46.204;19.774;2023-09-19T05:37:33;100078.25;;;20.75;68.71
72961;BME280;61141;46.204;19.774;2023-09-19T05:40:35;100077.13;;;20.85;68.21
72961;BME280;61141;46.204;19.774;2023-09-19T05:43:39;100067.66;;;20.83;68.28
72961;BME280;61141;46.204;19.774;2023-09-19T05:46:45;100077.47;;;21.00;67.96
72961;BME280;61141;46.204;19.774;2023-09-19T05:49:51;100074.81;;;21.09;67.60
72961;BME280;61141;46.204;19.774;2023-09-19T05:52:55;100063.34;;;21.07;67.38
72961;BME280;61141;46.204;19.774;2023-09-19T05:56:00;100071.56;;;21.23;67.24
72961;BME280;61141;46.204;19.774;2023-09-19T05:59:03;100061.84;;;21.28;67.04
72961;BME280;61141;46.204;19.774;2023-09-19T06:02:08;100066.97;;;21.29;67.23
72961;BME280;61141;46.204;19.774;2023-09-19T06:05:12;100070.75;;;21.35;67.22
72961;BME280;61141;46.204;19.774;2023-09-19T06:08:15;100070.38;;;21.46;67.07
72961;BME280;61141;46.204;19.774;2023-09-19T06:11:19;100069.84;;;21.51;67.03
72961;BME280;61141;46.204;19.774;2023-09-19T06:14:23;100070.69;;;21.60;66.76
72961;BME280;61141;46.204;19.774;2023-09-19T06:17:27;100072.41;;;21.80;66.00
72961;BME280;61141;46.204;19.774;2023-09-19T06:20:31;100079.47;;;22.06;64.84
72961;BME280;61141;46.204;19.774;2023-09-19T06:23:34;100079.66;;;22.33;64.09
72961;BME280;61141;46.204;19.774;2023-09-19T06:26:37;100072.97;;;22.31;63.25
72961;BME280;61141;46.204;19.774;2023-09-19T06:29:40;100076.66;;;22.28;63.45
72961;BME280;61141;46.204;19.774;2023-09-19T06:32:44;100068.88;;;22.22;63.13
72961;BME280;61141;46.204;19.774;2023-09-19T06:35:47;100074.31;;;22.26;63.28
72961;BME280;61141;46.204;19.774;2023-09-19T06:38:50;100082.13;;;22.31;62.97
72961;BME280;61141;46.204;19.774;2023-09-19T06:41:54;100081.06;;;22.38;62.86
72961;BME280;61141;46.204;19.774;2023-09-19T06:44:57;100063.50;;;22.28;62.59
72961;BME280;61141;46.204;19.774;2023-09-19T06:48:00;100079.12;;;22.47;62.11
72961;BME280;61141;46.204;19.774;2023-09-19T06:51:06;100080.72;;;22.57;61.77
72961;BME280;61141;46.204;19.774;2023-09-19T06:54:10;100088.59;;;22.71;61.42
72961;BME280;61141;46.204;19.774;2023-09-19T06:57:13;100086.56;;;22.72;61.19
72961;BME280;61141;46.204;19.774;2023-09-19T07:00:16;100069.88;;;22.90;60.90
72961;BME280;61141;46.204;19.774;2023-09-19T07:03:24;100080.63;;;23.01;60.66
72961;BME280;61141;46.204;19.774;2023-09-19T07:06:29;100073.50;;;23.00;60.04
72961;BME280;61141;46.204;19.774;2023-09-19T07:09:32;100077.87;;;23.10;60.29
72961;BME280;61141;46.204;19.774;2023-09-19T07:12:35;100087.13;;;22.98;60.18
72961;BME280;61141;46.204;19.774;2023-09-19T07:15:38;100084.81;;;22.96;60.07
72961;BME280;61141;46.204;19.774;2023-09-19T07:18:44;100088.72;;;23.08;60.10
72961;BME280;61141;46.204;19.774;2023-09-19T07:21:47;100088.59;;;23.11;60.04
72961;BME280;61141;46.204;19.774;2023-09-19T07:24:52;100084.72;;;23.18;59.97
72961;BME280;61141;46.204;19.774;2023-09-19T07:27:56;100088.16;;;23.22;59.87
72961;BME280;61141;46.204;19.774;2023-09-19T07:31:03;100092.84;;;23.34;59.47
72961;BME280;61141;46.204;19.774;2023-09-19T07:34:07;100092.91;;;23.52;59.09
72961;BME280;61141;46.204;19.774;2023-09-19T07:37:11;100098.97;;;23.78;58.42
72961;BME280;61141;46.204;19.774;2023-09-19T07:40:16;100091.84;;;23.95;57.74
72961;BME280;61141;46.204;19.774;2023-09-19T07:43:19;100099.19;;;24.11;57.24
72961;BME280;61141;46.204;19.774;2023-09-19T07:46:22;100097.31;;;24.17;57.18
72961;BME280;61141;46.204;19.774;2023-09-19T07:49:27;100094.19;;;24.33;56.98
72961;BME280;61141;46.204;19.774;2023-09-19T07:52:30;100096.44;;;24.71;55.99
72961;BME280;61141;46.204;19.774;2023-09-19T07:55:33;100116.09;;;25.03;55.07
72961;BME280;61141;46.204;19.774;2023-09-19T07:58:39;100126.69;;;24.99;55.23
72961;BME280;61141;46.204;19.774;2023-09-19T08:01:46;100130.78;;;24.89;55.35
72961;BME280;61141;46.204;19.774;2023-09-19T08:04:51;100146.06;;;24.70;55.96
72961;BME280;61141;46.204;19.774;2023-09-19T08:07:55;100145.94;;;24.55;56.60
72961;BME280;61141;46.204;19.774;2023-09-19T08:10:59;100155.44;;;24.58;56.81
72961;BME280;61141;46.204;19.774;2023-09-19T08:14:02;100163.53;;;24.65;56.82
72961;BME280;61141;46.204;19.774;2023-09-19T08:17:05;100160.88;;;24.71;56.73
72961;BME280;61141;46.204;19.774;2023-09-19T08:20:10;100162.25;;;24.93;56.01
72961;BME280;61141;46.204;19.774;2023-09-19T08:23:20;100162.19;;;25.02;56.06
72961;BME280;61141;46.204;19.774;2023-09-19T08:26:23;100170.78;;;24.99;55.68
72961;BME280;61141;46.204;19.774;2023-09-19T08:29:27;100155.06;;;25.01;55.85
72961;BME280;61141;46.204;19.774;2023-09-19T08:32:30;100177.22;;;25.32;55.56
72961;BME280;61141;46.204;19.774;2023-09-19T08:35:33;100185.87;;;25.43;56.10
72961;BME280;61141;46.204;19.774;2023-09-19T08:38:36;100185.44;;;25.36;57.28
72961;BME280;61141;46.204;19.774;2023-09-19T08:41:40;100187.97;;;25.25;58.29
72961;BME280;61141;46.204;19.774;2023-09-19T08:44:42;100200.09;;;25.31;58.46
72961;BME280;61141;46.204;19.774;2023-09-19T08:47:52;100199.16;;;24.74;61.04
72961;BME280;61141;46.204;19.774;2023-09-19T08:51:41;100215.53;;;24.57;63.58
72961;BME280;61141;46.204;19.774;2023-09-19T08:54:38;100233.87;;;24.67;65.04
72961;BME280;61141;46.204;19.774;2023-09-19T08:57:43;100241.97;;;24.47;66.92
72961;BME280;61141;46.204;19.774;2023-09-19T09:00:48;100254.66;;;23.54;72.00
72961;BME280;61141;46.204;19.774;2023-09-19T09:03:56;100260.63;;;23.12;73.09
72961;BME280;61141;46.204;19.774;2023-09-19T09:07:02;100276.03;;;22.73;74.40
72961;BME280;61141;46.204;19.774;2023-09-19T09:10:06;100267.22;;;22.97;72.90
72961;BME280;61141;46.204;19.774;2023-09-19T09:13:10;100270.25;;;22.90;72.92
72961;BME280;61141;46.204;19.774;2023-09-19T09:16:16;100277.53;;;22.87;72.75
72961;BME280;61141;46.204;19.774;2023-09-19T09:19:22;100306.91;;;23.13;71.70
72961;BME280;61141;46.204;19.774;2023-09-19T09:22:27;100281.69;;;22.83;72.99
72961;BME280;61141;46.204;19.774;2023-09-19T09:25:53;100287.69;;;22.94;72.55
72961;BME280;61141;46.204;19.774;2023-09-19T09:28:57;100285.47;;;22.54;74.77
72961;BME280;61141;46.204;19.774;2023-09-19T09:32:25;100287.69;;;22.25;76.30
72961;BME280;61141;46.204;19.774;2023-09-19T09:35:28;100300.69;;;22.41;74.79
72961;BME280;61141;46.204;19.774;2023-09-19T09:38:47;100305.34;;;22.09;74.47
72961;BME280;61141;46.204;19.774;2023-09-19T09:41:57;100294.16;;;22.22;73.96
72961;BME280;61141;46.204;19.774;2023-09-19T09:45:25;100290.91;;;22.70;71.96
72961;BME280;61141;46.204;19.774;2023-09-19T09:48:37;100304.56;;;23.12;70.45
72961;BME280;61141;46.204;19.774;2023-09-19T09:51:44;100289.16;;;23.07;69.36
72961;BME280;61141;46.204;19.774;2023-09-19T09:55:01;100295.66;;;23.26;68.59
72961;BME280;61141;46.204;19.774;2023-09-19T09:58:17;100316.22;;;23.10;68.55
72961;BME280;61141;46.204;19.774;2023-09-19T10:01:26;100302.16;;;23.01;68.74
72961;BME280;61141;46.204;19.774;2023-09-19T10:04:34;100289.31;;;23.56;66.11
72961;BME280;61141;46.204;19.774;2023-09-19T10:07:39;100294.53;;;23.45;64.37
72961;BME280;61141;46.204;19.774;2023-09-19T10:10:46;100313.72;;;23.95;63.01
72961;BME280;61141;46.204;19.774;2023-09-19T10:14:06;100304.38;;;23.28;64.01
72961;BME280;61141;46.204;19.774;2023-09-19T10:17:12;100292.62;;;23.11;64.11
72961;BME280;61141;46.204;19.774;2023-09-19T10:20:18;100297.81;;;23.22;63.55
72961;BME280;61141;46.204;19.774;2023-09-19T10:23:36;100284.44;;;23.17;63.00
72961;BME280;61141;46.204;19.774;2023-09-19T10:26:40;100288.84;;;23.27;61.51
72961;BME280;61141;46.204;19.774;2023-09-19T10:29:48;100290.47;;;22.94;62.03
72961;BME280;61141;46.204;19.774;2023-09-19T10:32:59;100284.69;;;22.88;62.63
72961;BME280;61141;46.204;19.774;2023-09-19T10:36:04;100284.69;;;22.88;61.46
72961;BME280;61141;46.204;19.774;2023-09-19T10:39:08;100291.81;;;23.32;60.41
72961;BME280;61141;46.204;19.774;2023-09-19T10:42:17;100282.19;;;23.33;58.87
72961;BME280;61141;46.204;19.774;2023-09-19T10:45:21;100289.62;;;23.06;59.09
72961;BME280;61141;46.204;19.774;2023-09-19T10:48:25;100272.59;;;23.13;58.58
72961;BME280;61141;46.204;19.774;2023-09-19T10:51:38;100282.84;;;23.37;58.25
72961;BME280;61141;46.204;19.774;2023-09-19T10:54:46;100275.84;;;22.90;59.18
72961;BME280;61141;46.204;19.774;2023-09-19T10:57:53;100278.28;;;23.31;58.52
72961;BME280;61141;46.204;19.774;2023-09-19T11:00:58;100273.47;;;23.31;58.40
72961;BME280;61141;46.204;19.774;2023-09-19T11:04:28;100277.28;;;23.77;56.79
72961;BME280;61141;46.204;19.774;2023-09-19T11:07:58;100279.91;;;23.72;56.50
72961;BME280;61141;46.204;19.774;2023-09-19T11:11:02;100270.91;;;24.26;55.05
72961;BME280;61141;46.204;19.774;2023-09-19T11:20:35;100271.84;;;24.32;53.95
72961;BME280;61141;46.204;19.774;2023-09-19T11:27:12;100283.22;;;24.55;53.95
72961;BME280;61141;46.204;19.774;2023-09-19T11:30:26;100279.28;;;24.17;55.00
72961;BME280;61141;46.204;19.774;2023-09-19T11:33:30;100274.22;;;24.61;54.10
72961;BME280;61141;46.204;19.774;2023-09-19T11:36:36;100271.53;;;24.48;53.98
72961;BME280;61141;46.204;19.774;2023-09-19T11:39:39;100259.72;;;24.53;53.86
72961;BME280;61141;46.204;19.774;2023-09-19T11:42:46;100256.63;;;24.87;52.88
72961;BME280;61141;46.204;19.774;2023-09-19T11:49:07;100232.78;;;24.74;52.80
72961;BME280;61141;46.204;19.774;2023-09-19T11:52:21;100251.16;;;24.29;53.61
72961;BME280;61141;46.204;19.774;2023-09-19T11:55:28;100249.16;;;24.57;52.46
72961;BME280;61141;46.204;19.774;2023-09-19T11:58:36;100243.09;;;24.49;52.96
72961;BME280;61141;46.204;19.774;2023-09-19T12:01:50;100233.87;;;24.76;52.27
72961;BME280;61141;46.204;19.774;2023-09-19T12:04:57;100222.94;;;25.05;51.43
72961;BME280;61141;46.204;19.774;2023-09-19T12:08:05;100234.34;;;25.02;50.80
72961;BME280;61141;46.204;19.774;2023-09-19T12:11:15;100217.16;;;25.09;50.80
72961;BME280;61141;46.204;19.774;2023-09-19T12:14:25;100226.50;;;25.15;50.10
72961;BME280;61141;46.204;19.774;2023-09-19T12:17:41;100205.69;;;25.49;49.79
72961;BME280;61141;46.204;19.774;2023-09-19T12:20:46;100201.69;;;25.23;49.78
72961;BME280;61141;46.204;19.774;2023-09-19T12:24:13;100205.84;;;25.36;49.69
72961;BME280;61141;46.204;19.774;2023-09-19T12:27:16;100223.09;;;25.44;49.46
72961;BME280;61141;46.204;19.774;2023-09-19T12:30:20;100222.38;;;25.76;49.34
72961;BME280;61141;46.204;19.774;2023-09-19T12:33:29;100216.94;;;25.31;49.81
72961;BME280;61141;46.204;19.774;2023-09-19T12:36:34;100230.09;;;25.57;49.58
72961;BME280;61141;46.204;19.774;2023-09-19T12:39:39;100222.09;;;25.32;50.24
72961;BME280;61141;46.204;19.774;2023-09-19T12:42:45;100223.06;;;25.20;50.40
72961;BME280;61141;46.204;19.774;2023-09-19T12:45:48;100244.50;;;25.74;49.05
72961;BME280;61141;46.204;19.774;2023-09-19T12:49:19;100235.12;;;25.53;49.76
72961;BME280;61141;46.204;19.774;2023-09-19T12:52:22;100252.81;;;25.68;49.04
72961;BME280;61141;46.204;19.774;2023-09-19T12:55:30;100253.91;;;25.20;49.56
72961;BME280;61141;46.204;19.774;2023-09-19T12:58:54;100251.84;;;25.30;48.96
72961;BME280;61141;46.204;19.774;2023-09-19T13:02:05;100262.03;;;25.18;49.31
72961;BME280;61141;46.204;19.774;2023-09-19T13:05:09;100259.84;;;25.13;48.35
72961;BME280;61141;46.204;19.774;2023-09-19T13:08:35;100248.09;;;25.33;48.04
72961;BME280;61141;46.204;19.774;2023-09-19T13:11:42;100238.47;;;25.66;47.25
72961;BME280;61141;46.204;19.774;2023-09-19T13:14:47;100239.34;;;25.49;46.40
72961;BME280;61141;46.204;19.774;2023-09-19T13:17:53;100235.62;;;25.34;46.08
72961;BME280;61141;46.204;19.774;2023-09-19T13:21:06;100237.81;;;25.30;47.12
72961;BME280;61141;46.204;19.774;2023-09-19T13:24:25;100225.44;;;25.03;47.02
72961;BME280;61141;46.204;19.774;2023-09-19T13:27:30;100237.59;;;24.91;47.58
72961;BME280;61141;46.204;19.774;2023-09-19T13:30:37;100231.41;;;25.38;46.58
72961;BME280;61141;46.204;19.774;2023-09-19T13:33:45;100223.66;;;25.66;45.74
72961;BME280;61141;46.204;19.774;2023-09-19T13:36:49;100243.81;;;25.88;44.98
72961;BME280;61141;46.204;19.774;2023-09-19T13:39:52;100226.94;;;25.23;44.52
72961;BME280;61141;46.204;19.774;2023-09-19T13:42:56;100229.28;;;25.24;45.02
72961;BME280;61141;46.204;19.774;2023-09-19T13:45:59;100227.44;;;25.12;44.97
72961;BME280;61141;46.204;19.774;2023-09-19T13:49:02;100222.22;;;25.38;44.83
72961;BME280;61141;46.204;19.774;2023-09-19T13:52:10;100228.19;;;25.63;43.78
72961;BME280;61141;46.204;19.774;2023-09-19T13:55:12;100220.03;;;25.33;44.24
72961;BME280;61141;46.204;19.774;2023-09-19T13:58:17;100227.47;;;25.54;44.22
72961;BME280;61141;46.204;19.774;2023-09-19T14:01:20;100231.09;;;25.36;44.06
72961;BME280;61141;46.204;19.774;2023-09-19T14:04:23;100225.06;;;25.29;44.11
72961;BME280;61141;46.204;19.774;2023-09-19T14:07:26;100237.78;;;25.48;44.50
72961;BME280;61141;46.204;19.774;2023-09-19T14:10:30;100224.63;;;25.12;45.60
72961;BME280;61141;46.204;19.774;2023-09-19T14:13:34;100221.62;;;25.25;45.61
72961;BME280;61141;46.204;19.774;2023-09-19T14:16:37;100226.59;;;25.30;45.70
72961;BME280;61141;46.204;19.774;2023-09-19T14:19:42;100236.53;;;25.40;45.82
72961;BME280;61141;46.204;19.774;2023-09-19T14:22:48;100237.72;;;25.15;46.52
72961;BME280;61141;46.204;19.774;2023-09-19T14:25:51;100240.41;;;24.91;47.42
72961;BME280;61141;46.204;19.774;2023-09-19T14:28:56;100242.25;;;25.12;47.22
72961;BME280;61141;46.204;19.774;2023-09-19T14:32:02;100247.50;;;25.29;47.16
72961;BME280;61141;46.204;19.774;2023-09-19T14:35:07;100242.47;;;25.33;47.70
72961;BME280;61141;46.204;19.774;2023-09-19T14:38:09;100248.97;;;24.97;48.66
72961;BME280;61141;46.204;19.774;2023-09-19T14:41:13;100249.41;;;24.77;49.11
72961;BME280;61141;46.204;19.774;2023-09-19T14:44:16;100255.53;;;24.85;49.27
72961;BME280;61141;46.204;19.774;2023-09-19T14:47:19;100257.56;;;24.93;49.36
72961;BME280;61141;46.204;19.774;2023-09-19T14:50:22;100256.00;;;24.92;49.56
72961;BME280;61141;46.204;19.774;2023-09-19T14:53:25;100257.06;;;24.86;49.76
72961;BME280;61141;46.204;19.774;2023-09-19T14:56:30;100256.63;;;24.87;49.70
72961;BME280;61141;46.204;19.774;2023-09-19T14:59:34;100261.75;;;24.98;49.36
72961;BME280;61141;46.204;19.774;2023-09-19T15:02:40;100266.22;;;25.13;49.53
72961;BME280;61141;46.204;19.774;2023-09-19T15:05:44;100258.38;;;25.36;49.00
72961;BME280;61141;46.204;19.774;2023-09-19T15:08:47;100263.38;;;25.32;48.99
72961;BME280;61141;46.204;19.774;2023-09-19T15:11:54;100251.41;;;25.22;48.99
72961;BME280;61141;46.204;19.774;2023-09-19T15:14:57;100262.69;;;24.95;49.58
72961;BME280;61141;46.204;19.774;2023-09-19T15:18:00;100261.59;;;24.92;49.79
72961;BME280;61141;46.204;19.774;2023-09-19T15:21:06;100258.50;;;24.81;50.47
72961;BME280;61141;46.204;19.774;2023-09-19T15:24:10;100258.34;;;24.85;50.31
72961;BME280;61141;46.204;19.774;2023-09-19T15:27:12;100261.44;;;24.69;51.01
72961;BME280;61141;46.204;19.774;2023-09-19T15:30:15;100258.16;;;24.43;51.68
72961;BME280;61141;46.204;19.774;2023-09-19T15:33:18;100268.91;;;24.53;51.58
72961;BME280;61141;46.204;19.774;2023-09-19T15:36:22;100275.56;;;24.47;52.18
72961;BME280;61141;46.204;19.774;2023-09-19T15:39:25;100275.28;;;24.45;52.37
72961;BME280;61141;46.204;19.774;2023-09-19T15:42:28;100275.91;;;24.40;52.61
72961;BME280;61141;46.204;19.774;2023-09-19T15:45:32;100286.78;;;24.38;52.79
72961;BME280;61141;46.204;19.774;2023-09-19T15:48:36;100285.81;;;24.23;53.40
72961;BME280;61141;46.204;19.774;2023-09-19T15:51:39;100285.03;;;24.22;53.78
72961;BME280;61141;46.204;19.774;2023-09-19T15:54:43;100285.97;;;24.19;53.73
72961;BME280;61141;46.204;19.774;2023-09-19T15:57:47;100286.84;;;24.07;54.22
72961;BME280;61141;46.204;19.774;2023-09-19T16:00:50;100280.16;;;24.05;54.08
72961;BME280;61141;46.204;19.774;2023-09-19T16:03:55;100275.63;;;23.98;54.30
72961;BME280;61141;46.204;19.774;2023-09-19T16:06:58;100297.22;;;23.88;55.15
72961;BME280;61141;46.204;19.774;2023-09-19T16:10:02;100296.88;;;23.86;55.41
72961;BME280;61141;46.204;19.774;2023-09-19T16:13:05;100298.59;;;23.84;55.78
72961;BME280;61141;46.204;19.774;2023-09-19T16:16:09;100293.44;;;23.73;56.23
72961;BME280;61141;46.204;19.774;2023-09-19T16:19:15;100303.66;;;23.67;56.52
72961;BME280;61141;46.204;19.774;2023-09-19T16:22:18;100303.47;;;23.62;56.57